Time;durP1;ratioP1;P1;durP2;ratioP2;P2;SDS_P1;SDS_P2;PMS_P1;PMS_P2;Temp;Humidity;BMP_temperature;BMP_pressure;BME280_temperature;BME280_humidity;BME280_pressure;Samples;Min_cycle;Max_cycle;Signal;HPM_P1;HPM_P2
2023/07/29 04:01:34;;;;;;;0.60;0.20;;;19.80;1.00;;;;;;5061117;22;21150;-76
2023/07/29 04:04:02;;;;;;;0.70;0.30;;;19.80;1.00;;;;;;5054280;28;20441;-76
2023/07/29 04:06:30;;;;;;;0.60;0.13;;;19.70;1.00;;;;;;5053503;28;20453;-75
2023/07/29 04:08:58;;;;;;;0.60;0.10;;;19.70;1.00;;;;;;5054294;28;20454;-76
2023/07/29 04:11:26;;;;;;;0.60;0.10;;;19.70;1.00;;;;;;5055095;28;20478;-76
2023/07/29 04:13:54;;;;;;;0.60;0.10;;;19.80;1.00;;;;;;5055262;28;20449;-76
2023/07/29 04:16:21;;;;;;;0.70;0.30;;;19.90;1.00;;;;;;5103375;22;20513;-79
2023/07/29 04:18:51;;;;;;;0.60;0.20;;;19.80;1.00;;;;;;5054070;28;20449;-79
2023/07/29 04:21:19;;;;;;;0.60;0.10;;;19.70;1.00;;;;;;5053793;28;20893;-78
2023/07/29 04:23:46;;;;;;;0.60;0.10;;;19.70;1.00;;;;;;5054480;28;20481;-79
2023/07/29 04:26:14;;;;;;;0.60;0.10;;;19.80;1.00;;;;;;5054108;28;20482;-78
2023/07/29 04:28:43;;;;;;;1.43;0.60;;;19.80;1.00;;;;;;5054350;28;20541;-78
2023/07/29 04:31:11;;;;;;;4.00;0.73;;;19.80;1.00;;;;;;5053384;28;20472;-80
2023/07/29 04:33:39;;;;;;;0.60;0.10;;;19.70;1.00;;;;;;5054223;28;20446;-78
2023/07/29 04:36:08;;;;;;;0.60;0.17;;;19.70;1.00;;;;;;5048556;28;20800;-78
2023/07/29 04:38:38;;;;;;;0.60;0.10;;;19.70;1.00;;;;;;5042781;28;20513;-79
2023/07/29 04:41:08;;;;;;;0.60;0.10;;;19.70;7.00;;;;;;5043047;28;20426;-79
2023/07/29 04:43:37;;;;;;;0.60;0.20;;;;;;;;;;5043866;28;20950;-78
2023/07/29 04:46:08;;;;;;;0.60;0.10;;;19.80;1.00;;;;;;5040995;28;20576;-79
2023/07/29 04:48:36;;;;;;;0.60;0.10;;;19.80;1.00;;;;;;5034205;28;20935;-78
2023/07/29 04:51:04;;;;;;;0.60;0.30;;;19.80;1.00;;;;;;5034343;28;20451;-78
2023/07/29 04:53:34;;;;;;;1.30;0.50;;;;;;;;;;5044813;28;20549;-78
2023/07/29 04:56:02;;;;;;;0.60;0.20;;;19.80;1.00;;;;;;5032889;28;20897;-78
2023/07/29 04:58:34;;;;;;;0.60;0.10;;;19.60;1.00;;;;;;5037080;28;20979;-79
2023/07/29 05:01:02;;;;;;;0.60;0.10;;;19.60;1.00;;;;;;5041695;28;20981;-79
2023/07/29 05:03:30;;;;;;;0.60;0.20;;;19.70;1.00;;;;;;5034294;28;20454;-79
2023/07/29 05:05:59;;;;;;;0.70;0.60;;;19.50;1.00;;;;;;5048805;28;20545;-79
2023/07/29 05:08:27;;;;;;;0.73;0.37;;;19.50;8.10;;;;;;5042175;28;20450;-79
2023/07/29 05:10:57;;;;;;;0.60;0.20;;;19.50;34.00;;;;;;5054796;28;20896;-79
2023/07/29 05:13:25;;;;;;;0.90;0.30;;;;;;;;;;5055042;28;20483;-78
2023/07/29 05:15:53;;;;;;;1.23;1.13;;;19.60;65.80;;;;;;5053703;28;20472;-78
2023/07/29 05:18:21;;;;;;;0.60;0.10;;;19.50;43.80;;;;;;5054757;28;20838;-78
2023/07/29 05:20:49;;;;;;;0.70;0.30;;;19.40;36.70;;;;;;5054032;28;20517;-78
2023/07/29 05:23:17;;;;;;;1.00;0.60;;;19.40;67.90;;;;;;5054258;28;20453;-79
2023/07/29 05:25:44;;;;;;;0.97;0.87;;;19.40;99.90;;;;;;5054265;28;20509;-78
2023/07/29 05:28:13;;;;;;;0.60;0.40;;;19.40;99.90;;;;;;5055580;28;20528;-78
2023/07/29 05:30:45;;;;;;;0.60;0.20;;;19.30;99.90;;;;;;5050141;28;20593;-79
2023/07/29 05:33:13;;;;;;;0.60;0.20;;;19.40;99.90;;;;;;5043847;28;20508;-79
2023/07/29 05:35:41;;;;;;;0.70;0.43;;;19.40;99.90;;;;;;5042276;28;20468;-79
2023/07/29 05:38:09;;;;;;;0.60;0.20;;;19.50;99.90;;;;;;5044363;28;20500;-78
2023/07/29 05:40:37;;;;;;;0.60;0.20;;;19.50;99.90;;;;;;5052237;28;20453;-79
2023/07/29 05:43:05;;;;;;;0.60;0.20;;;;;;;;;;5052787;28;20467;-78
2023/07/29 05:45:35;;;;;;;1.00;0.40;;;;;;;;;;5050914;28;20850;-79
2023/07/29 05:48:03;;;;;;;0.73;0.40;;;19.50;99.90;;;;;;5053806;28;20443;-78
2023/07/29 05:50:31;;;;;;;0.60;0.30;;;19.50;99.90;;;;;;5053388;28;20449;-78
2023/07/29 05:52:59;;;;;;;0.60;0.20;;;19.40;99.90;;;;;;5052574;28;20465;-79
2023/07/29 05:55:27;;;;;;;0.70;0.20;;;19.50;99.90;;;;;;5053441;28;20557;-78
2023/07/29 05:57:55;;;;;;;0.60;0.10;;;19.60;99.90;;;;;;5053888;28;20474;-79
2023/07/29 06:00:22;;;;;;;0.80;0.53;;;16.40;99.90;;;;;;5053196;28;20447;-78
2023/07/29 06:02:52;;;;;;;0.60;0.10;;;19.60;99.90;;;;;;5050643;28;20481;-78
2023/07/29 06:05:20;;;;;;;1.90;1.80;;;19.60;99.90;;;;;;5048493;28;20442;-78
2023/07/29 06:07:48;;;;;;;0.80;0.63;;;19.50;90.60;;;;;;5052205;28;20546;-79
2023/07/29 06:10:18;;;;;;;2.60;1.33;;;19.50;99.90;;;;;;5052363;28;20450;-78
2023/07/29 06:12:46;;;;;;;1.53;0.93;;;19.50;99.90;;;;;;5051930;28;20441;-78
2023/07/29 06:15:14;;;;;;;0.60;0.30;;;19.60;99.90;;;;;;5051461;28;20985;-78
2023/07/29 06:17:43;;;;;;;0.80;0.63;;;;;;;;;;5051782;28;20485;-78
2023/07/29 06:20:12;;;;;;;1.20;0.73;;;19.60;99.90;;;;;;5053919;28;20446;-79
2023/07/29 06:22:40;;;;;;;1.27;1.17;;;19.60;99.90;;;;;;5057683;28;20528;-78
2023/07/29 06:25:09;;;;;;;1.40;0.87;;;19.50;99.90;;;;;;5054448;28;20483;-78
2023/07/29 06:27:36;;;;;;;7.57;2.47;;;19.50;99.90;;;;;;5052460;28;20459;-79
2023/07/29 06:30:05;;;;;;;2.53;1.90;;;19.40;99.90;;;;;;5052145;28;20972;-78
2023/07/29 06:32:34;;;;;;;0.60;0.10;;;19.50;99.90;;;;;;5051985;28;20533;-78
2023/07/29 06:35:02;;;;;;;1.80;1.27;;;19.40;99.90;;;;;;5051797;28;20444;-78
2023/07/29 06:37:33;;;;;;;0.90;0.60;;;19.40;99.90;;;;;;5051530;28;20509;-78
2023/07/29 06:40:01;;;;;;;0.70;0.30;;;19.50;99.90;;;;;;5051756;28;20449;-78
2023/07/29 06:42:29;;;;;;;0.60;0.10;;;19.60;99.90;;;;;;5051653;28;20581;-77
2023/07/29 06:44:56;;;;;;;0.60;0.10;;;19.70;99.90;;;;;;5051008;28;20438;-77
2023/07/29 06:47:24;;;;;;;0.80;0.50;;;19.70;99.90;;;;;;5051467;28;20473;-78
2023/07/29 06:49:52;;;;;;;0.60;0.10;;;19.90;99.90;;;;;;5047392;28;20542;-77
2023/07/29 06:52:20;;;;;;;0.60;0.13;;;19.80;99.90;;;;;;5033828;28;20780;-71
2023/07/29 06:54:49;;;;;;;0.60;0.10;;;19.90;99.90;;;;;;5044388;28;20458;-71
2023/07/29 06:57:17;;;;;;;0.60;0.10;;;20.00;99.90;;;;;;5041132;28;20904;-71
2023/07/29 06:59:45;;;;;;;0.60;0.20;;;20.10;99.90;;;;;;5048568;28;21166;-70
2023/07/29 07:02:13;;;;;;;0.73;0.50;;;20.10;99.90;;;;;;5048358;28;20466;-71
2023/07/29 07:04:41;;;;;;;1.23;0.67;;;20.00;99.90;;;;;;5049169;28;20442;-76
2023/07/29 07:07:08;;;;;;;0.60;0.20;;;19.90;99.90;;;;;;5049814;28;21042;-73
2023/07/29 07:09:36;;;;;;;0.60;0.20;;;19.90;99.90;;;;;;5050962;28;20438;-74
2023/07/29 07:12:06;;;;;;;0.80;0.60;;;19.90;99.90;;;;;;5050619;28;20792;-74
2023/07/29 07:14:34;;;;;;;0.60;0.30;;;19.80;99.90;;;;;;5050838;28;20452;-74
2023/07/29 07:17:02;;;;;;;0.80;0.40;;;19.80;99.90;;;;;;5050160;28;20800;-73
2023/07/29 07:19:30;;;;;;;0.60;0.20;;;20.00;99.90;;;;;;5051584;28;20494;-73
2023/07/29 07:21:57;;;;;;;0.60;0.10;;;20.10;99.90;;;;;;5055132;28;20537;-74
2023/07/29 07:24:25;;;;;;;2.20;1.20;;;20.10;99.90;;;;;;5054227;28;20445;-73
2023/07/29 07:26:53;;;;;;;0.60;0.20;;;;;;;;;;5054946;28;20468;-74
2023/07/29 07:29:23;;;;;;;2.47;2.07;;;20.10;99.90;;;;;;5048969;28;21546;-73
2023/07/29 07:31:53;;;;;;;1.97;0.93;;;20.00;99.90;;;;;;5054056;28;20549;-73
2023/07/29 07:34:21;;;;;;;0.90;0.60;;;19.80;99.90;;;;;;5054667;28;20528;-74
2023/07/29 07:36:49;;;;;;;0.70;0.40;;;19.80;99.90;;;;;;5054617;28;20462;-73
2023/07/29 07:39:17;;;;;;;0.70;0.40;;;19.70;99.90;;;;;;5054726;28;21026;-73
2023/07/29 07:41:45;;;;;;;0.60;0.20;;;19.80;99.90;;;;;;5046644;28;20534;-73
2023/07/29 07:44:17;;;;;;;4.60;3.37;;;19.80;99.90;;;;;;5041822;28;20497;-74
2023/07/29 07:46:46;;;;;;;2.00;1.70;;;19.70;99.90;;;;;;5034667;28;20462;-73
2023/07/29 07:49:15;;;;;;;3.13;2.83;;;19.80;99.90;;;;;;5035228;28;20874;-72
2023/07/29 07:51:44;;;;;;;2.10;1.80;;;19.70;99.90;;;;;;5034925;28;20443;-73
2023/07/29 07:54:12;;;;;;;3.67;3.47;;;19.80;99.90;;;;;;5034647;28;20449;-74
2023/07/29 07:56:40;;;;;;;1.83;1.23;;;19.80;99.90;;;;;;5034253;28;21017;-73
2023/07/29 07:59:08;;;;;;;3.50;3.23;;;19.70;99.90;;;;;;5035804;28;20577;-73
2023/07/29 08:01:39;;;;;;;0.77;0.40;;;19.70;99.90;;;;;;5046346;28;20538;-73
2023/07/29 08:04:08;;;;;;;1.07;0.97;;;19.70;99.90;;;;;;5054865;28;20449;-73
2023/07/29 08:06:36;;;;;;;0.60;0.20;;;19.80;99.90;;;;;;5054272;28;20577;-72
2023/07/29 08:09:04;;;;;;;0.70;0.40;;;19.80;99.90;;;;;;5054188;28;20533;-72
2023/07/29 08:11:32;;;;;;;0.60;0.10;;;19.90;99.90;;;;;;5053831;28;20442;-72
2023/07/29 08:14:00;;;;;;;0.80;0.53;;;19.90;99.90;;;;;;5053518;28;20446;-73
2023/07/29 08:16:28;;;;;;;0.60;0.30;;;20.00;99.90;;;;;;5049821;28;20543;-72
2023/07/29 08:18:56;;;;;;;0.70;0.33;;;;;;;;;;5046060;28;20488;-73
2023/07/29 08:21:27;;;;;;;1.57;0.87;;;19.90;99.90;;;;;;5044148;28;20452;-71
2023/07/29 08:23:55;;;;;;;1.50;0.70;;;19.90;99.90;;;;;;5045567;28;20520;-70
2023/07/29 08:26:23;;;;;;;0.97;0.30;;;;;;;;;;5041288;28;20250;-71
2023/07/29 08:28:51;;;;;;;0.90;0.60;;;20.10;99.90;;;;;;5033090;28;20446;-72
2023/07/29 08:31:22;;;;;;;0.60;0.17;;;20.10;99.90;;;;;;5037780;28;20831;-71
2023/07/29 08:33:50;;;;;;;0.60;0.20;;;20.20;99.90;;;;;;5049009;28;20488;-72
2023/07/29 08:36:17;;;;;;;1.30;1.20;;;20.20;99.90;;;;;;5049594;28;20545;-73
2023/07/29 08:38:47;;;;;;;1.37;0.80;;;20.20;99.90;;;;;;5041623;28;20443;-73
2023/07/29 08:41:17;;;;;;;2.73;1.37;;;20.20;99.90;;;;;;5036027;28;20475;-73
2023/07/29 08:43:51;;;;;;;0.60;0.20;;;20.20;99.90;;;;;;5043389;28;20999;-72
2023/07/29 08:46:20;;;;;;;0.90;0.63;;;20.40;99.90;;;;;;5043825;28;20565;-73
2023/07/29 08:48:48;;;;;;;0.60;0.10;;;20.40;99.90;;;;;;5052698;28;20443;-72
2023/07/29 08:51:18;;;;;;;0.60;0.40;;;20.60;99.90;;;;;;5052738;28;20999;-72
2023/07/29 08:53:47;;;;;;;1.00;0.90;;;20.70;86.60;;;;;;5052891;28;20442;-73
2023/07/29 08:56:16;;;;;;;0.60;0.20;;;20.90;37.90;;;;;;5044502;28;20471;-73
2023/07/29 08:58:44;;;;;;;0.70;0.40;;;20.90;1.00;;;;;;5052574;28;20438;-73
2023/07/29 09:01:13;;;;;;;0.80;0.73;;;21.00;1.00;;;;;;5052749;28;20518;-72
2023/07/29 09:03:42;;;;;;;0.60;0.30;;;21.00;1.00;;;;;;5052459;28;20442;-72
2023/07/29 09:06:10;;;;;;;0.60;0.20;;;21.10;1.00;;;;;;5052035;28;20498;-72
2023/07/29 09:08:38;;;;;;;0.97;0.60;;;21.00;1.00;;;;;;5043676;28;20915;-72
2023/07/29 09:11:08;;;;;;;1.20;0.63;;;20.90;1.00;;;;;;5052396;28;20508;-72
2023/07/29 09:13:36;;;;;;;0.60;0.20;;;21.00;1.00;;;;;;5051306;28;20940;-73
2023/07/29 09:16:05;;;;;;;0.70;0.50;;;21.10;1.00;;;;;;5047556;28;20545;-72
2023/07/29 09:18:33;;;;;;;0.60;0.20;;;21.30;1.00;;;;;;5049910;28;20529;-72
2023/07/29 09:21:01;;;;;;;0.60;0.10;;;;;;;;;;5051839;28;20487;-71
2023/07/29 09:23:29;;;;;;;0.60;0.17;;;21.60;1.00;;;;;;5051648;28;20462;-71
2023/07/29 09:26:07;;;;;;;0.70;0.37;;;21.60;1.00;;;;;;5037265;28;20494;-71
2023/07/29 09:28:37;;;;;;;0.60;0.10;;;21.60;1.00;;;;;;5032619;28;20477;-71
2023/07/29 09:31:05;;;;;;;1.00;0.53;;;21.60;1.00;;;;;;5032730;28;20437;-72
2023/07/29 09:33:36;;;;;;;0.60;0.20;;;21.70;99.90;;;;;;5032371;28;20451;-72
2023/07/29 09:36:10;;;;;;;0.70;0.30;;;21.70;99.90;;;;;;5032042;28;20533;-71
2023/07/29 09:38:38;;;;;;;1.13;0.50;;;21.80;99.90;;;;;;5032224;28;20933;-71
2023/07/29 09:41:08;;;;;;;1.33;0.87;;;21.80;99.90;;;;;;5032416;28;20983;-72
2023/07/29 09:43:36;;;;;;;0.60;0.20;;;21.80;99.90;;;;;;5034282;28;20861;-72
2023/07/29 09:46:06;;;;;;;0.60;0.20;;;;;;;;;;5050291;28;20463;-73
2023/07/29 09:48:35;;;;;;;0.70;0.20;;;22.00;99.90;;;;;;5045553;28;20488;-71
2023/07/29 09:51:11;;;;;;;0.60;0.23;;;22.00;99.90;;;;;;5049332;28;20550;-73
2023/07/29 09:53:44;;;;;;;0.60;0.10;;;22.10;99.90;;;;;;5051293;28;20439;-71
2023/07/29 09:56:16;;;;;;;0.70;0.30;;;22.20;99.90;;;;;;5045499;28;20478;-73
2023/07/29 09:58:45;;;;;;;0.60;0.20;;;22.40;99.90;;;;;;5051437;28;20436;-74
2023/07/29 10:01:14;;;;;;;1.00;0.30;;;;;;;;;;5040416;28;20861;-73
2023/07/29 10:03:43;;;;;;;0.90;0.53;;;22.50;99.90;;;;;;5049568;28;20943;-71
2023/07/29 10:06:11;;;;;;;1.03;0.40;;;22.50;99.90;;;;;;5049732;28;20466;-72
2023/07/29 10:08:41;;;;;;;1.63;0.50;;;22.70;99.90;;;;;;5050265;28;20467;-74
2023/07/29 10:11:10;;;;;;;1.00;0.23;;;22.60;99.90;;;;;;5049963;28;20928;-73
2023/07/29 10:13:40;;;;;;;0.60;0.20;;;22.60;99.90;;;;;;5042084;28;20463;-75
2023/07/29 10:16:09;;;;;;;0.70;0.30;;;22.60;99.90;;;;;;5045348;28;20796;-73
2023/07/29 10:18:37;;;;;;;0.60;0.20;;;22.80;99.90;;;;;;5050422;28;20493;-73
2023/07/29 10:21:06;;;;;;;0.60;0.10;;;22.90;99.90;;;;;;5043973;28;20509;-73
2023/07/29 10:23:43;;;;;;;0.60;0.10;;;22.90;99.90;;;;;;5035252;28;20455;-73
2023/07/29 10:26:12;;;;;;;0.70;0.40;;;23.00;99.90;;;;;;5051343;28;20466;-75
2023/07/29 10:28:46;;;;;;;0.70;0.30;;;23.10;99.90;;;;;;5047818;28;20467;-73
2023/07/29 10:31:16;;;;;;;1.20;0.73;;;23.20;99.90;;;;;;5045331;28;20487;-74
2023/07/29 10:33:45;;;;;;;1.07;0.87;;;23.30;99.90;;;;;;5046087;28;20474;-73
2023/07/29 10:36:14;;;;;;;0.60;0.17;;;23.30;99.90;;;;;;5042591;28;20481;-73
2023/07/29 10:38:42;;;;;;;0.60;0.10;;;23.40;99.90;;;;;;5044704;28;20532;-71
2023/07/29 10:41:10;;;;;;;0.60;0.10;;;23.50;99.90;;;;;;5049407;28;20584;-70
2023/07/29 10:43:38;;;;;;;0.70;0.30;;;23.60;99.90;;;;;;5050109;28;20524;-70
2023/07/29 10:46:18;;;;;;;0.60;0.20;;;23.70;99.90;;;;;;5047032;28;20467;-70
2023/07/29 10:48:54;;;;;;;0.60;0.20;;;23.70;99.90;;;;;;5043772;28;20444;-70
2023/07/29 10:51:29;;;;;;;0.70;0.20;;;23.60;99.90;;;;;;5051036;28;20881;-71
2023/07/29 10:53:58;;;;;;;0.60;0.20;;;23.60;99.90;;;;;;5049788;28;20464;-70
2023/07/29 10:56:28;;;;;;;0.77;0.27;;;23.80;99.90;;;;;;5046077;28;20460;-72
2023/07/29 10:58:58;;;;;;;0.60;0.10;;;24.00;99.90;;;;;;5045147;28;20485;-71
2023/07/29 11:01:33;;;;;;;0.60;0.10;;;24.10;99.90;;;;;;5046055;28;21068;-71
2023/07/29 11:04:26;;;;;;;0.60;0.10;;;24.10;99.90;;;;;;5043250;28;20459;-70
2023/07/29 11:07:26;;;;;;;0.60;0.10;;;24.10;99.90;;;;;;5049078;28;20459;-73
2023/07/29 11:10:00;;;;;;;0.60;0.10;;;24.20;99.90;;;;;;5043310;28;20461;-72
2023/07/29 11:12:39;;;;;;;1.20;0.77;;;24.30;99.90;;;;;;5041498;28;20940;-71
2023/07/29 11:15:14;;;;;;;0.80;0.43;;;24.30;99.90;;;;;;5043160;28;20480;-71
2023/07/29 11:17:45;;;;;;;0.80;0.40;;;24.20;99.90;;;;;;5032135;28;20462;-73
2023/07/29 11:20:15;;;;;;;0.70;0.30;;;23.90;99.90;;;;;;5023580;28;20473;-73
2023/07/29 11:22:43;;;;;;;1.57;1.20;;;23.80;99.90;;;;;;5017774;28;20621;-71
2023/07/29 11:25:14;;;;;;;0.70;0.40;;;23.50;99.90;;;;;;5010800;28;20449;-71
2023/07/29 11:27:42;;;;;;;0.97;0.40;;;23.30;99.90;;;;;;5029514;28;20480;-74
2023/07/29 11:30:11;;;;;;;1.10;0.70;;;23.00;99.90;;;;;;5030664;28;20871;-74
2023/07/29 11:32:41;;;;;;;1.33;0.90;;;22.90;99.90;;;;;;5030853;28;20507;-72
2023/07/29 11:35:12;;;;;;;0.60;0.20;;;22.90;99.90;;;;;;5028232;28;20448;-73
2023/07/29 11:37:41;;;;;;;1.03;0.57;;;23.00;99.90;;;;;;5027290;28;20817;-76
2023/07/29 11:40:10;;;;;;;0.87;0.30;;;23.10;99.90;;;;;;5030285;28;20531;-73
2023/07/29 11:42:39;;;;;;;1.43;0.67;;;23.10;99.90;;;;;;5029708;28;20444;-75
2023/07/29 11:45:08;;;;;;;0.60;0.20;;;23.20;99.90;;;;;;5039662;28;20807;-74
2023/07/29 11:47:36;;;;;;;0.60;0.10;;;23.20;99.90;;;;;;5031171;28;20953;-72
2023/07/29 11:50:06;;;;;;;0.60;0.20;;;23.30;99.90;;;;;;5030603;28;20446;-72
2023/07/29 11:52:36;;;;;;;0.60;0.20;;;23.30;99.90;;;;;;5027412;28;21012;-74
2023/07/29 11:55:06;;;;;;;0.60;0.10;;;23.60;99.90;;;;;;5025974;28;20452;-74
2023/07/29 11:57:37;;;;;;;0.60;0.20;;;23.80;99.90;;;;;;5031976;28;20497;-73
2023/07/29 12:00:09;;;;;;;1.60;1.50;;;23.90;99.90;;;;;;5033584;28;21193;-73
2023/07/29 12:02:39;;;;;;;0.60;0.10;;;23.80;99.90;;;;;;5035240;28;20478;-73
2023/07/29 12:05:09;;;;;;;0.80;0.30;;;19.10;99.90;;;;;;5028323;28;20838;-76
2023/07/29 12:07:39;;;;;;;0.60;0.10;;;;;;;;;;5027060;28;20527;-71
2023/07/29 12:10:08;;;;;;;0.70;0.30;;;24.00;99.90;;;;;;5035524;28;20441;-80
2023/07/29 12:12:41;;;;;;;0.60;0.10;;;24.00;99.90;;;;;;5036007;28;20524;-74
2023/07/29 12:15:10;;;;;;;0.97;0.60;;;24.10;99.90;;;;;;5033853;28;20493;-75
2023/07/29 12:17:41;;;;;;;0.60;0.20;;;24.20;99.90;;;;;;5061337;28;20469;-76
2023/07/29 12:20:10;;;;;;;0.67;0.20;;;24.40;99.90;;;;;;5075456;28;20789;-72
2023/07/29 12:22:40;;;;;;;1.30;0.73;;;24.40;99.90;;;;;;5074666;28;20483;-78
2023/07/29 12:25:09;;;;;;;0.60;0.20;;;24.50;99.90;;;;;;5075610;28;20655;-77
2023/07/29 12:27:38;;;;;;;0.60;0.10;;;;;;;;;;5076604;28;20883;-82
2023/07/29 12:30:07;;;;;;;1.00;0.70;;;24.60;99.90;;;;;;5068390;28;20448;-82
2023/07/29 12:32:44;;;;;;;0.70;0.23;;;24.80;99.90;;;;;;5063021;28;20440;-80
2023/07/29 12:35:12;;;;;;;0.70;0.10;;;;;;;;;;5071111;28;20457;-80
2023/07/29 12:37:43;;;;;;;0.63;0.20;;;;;;;;;;5065044;28;20502;-82
2023/07/29 12:40:22;;;;;;;1.83;0.87;;;;;;;;;;5066018;28;20500;-82
2023/07/29 12:42:51;;;;;;;1.47;1.37;;;25.10;99.90;;;;;;5072908;28;20461;-81
2023/07/29 12:45:22;;;;;;;0.63;0.10;;;25.20;99.90;;;;;;5056787;28;20484;-77
2023/07/29 12:47:50;;;;;;;0.70;0.17;;;;;;;;;;5051500;28;20495;-76
2023/07/29 12:50:19;;;;;;;0.70;0.30;;;;;;;;;;5052292;28;20446;-75
2023/07/29 12:52:48;;;;;;;0.67;0.13;;;25.30;99.90;;;;;;5052320;28;20866;-77
2023/07/29 12:55:16;;;;;;;1.10;0.47;;;25.20;99.90;;;;;;5052769;28;20437;-76
2023/07/29 12:57:48;;;;;;;0.70;0.20;;;25.00;99.90;;;;;;5048984;28;20512;-76
2023/07/29 13:00:16;;;;;;;0.70;0.10;;;25.10;99.90;;;;;;5053131;28;20446;-76
2023/07/29 13:02:44;;;;;;;0.70;0.20;;;25.10;99.90;;;;;;5065298;28;20507;-78
2023/07/29 13:05:13;;;;;;;0.70;0.30;;;25.00;99.90;;;;;;5058188;28;20529;-77
2023/07/29 13:07:41;;;;;;;0.70;0.20;;;24.90;99.90;;;;;;5059233;28;20482;-76
2023/07/29 13:10:11;;;;;;;0.70;0.10;;;25.00;99.90;;;;;;5056627;28;20568;-77
2023/07/29 13:12:39;;;;;;;0.70;0.10;;;24.90;99.90;;;;;;5059981;28;20942;-77
2023/07/29 13:15:08;;;;;;;0.77;0.40;;;24.90;99.90;;;;;;5058432;28;20445;-78
2023/07/29 13:17:37;;;;;;;0.70;0.10;;;;;;;;;;5061283;28;20468;-78
2023/07/29 13:20:07;;;;;;;1.20;0.67;;;24.90;99.90;;;;;;5082149;22;20517;-77
2023/07/29 13:22:35;;;;;;;0.90;0.67;;;24.90;99.90;;;;;;5108466;28;20478;-78
2023/07/29 13:25:03;;;;;;;1.10;0.50;;;24.90;99.90;;;;;;5113794;28;20429;-78
2023/07/29 13:27:32;;;;;;;0.70;0.20;;;24.80;99.90;;;;;;5111746;28;20809;-78
2023/07/29 13:30:00;;;;;;;1.20;0.30;;;24.90;99.90;;;;;;5098399;28;20541;-76
2023/07/29 13:32:28;;;;;;;1.33;0.50;;;25.00;99.90;;;;;;5089710;28;20433;-76
2023/07/29 13:34:57;;;;;;;0.70;0.10;;;25.00;99.90;;;;;;5087907;28;20454;-76
2023/07/29 13:37:25;;;;;;;0.70;0.10;;;25.10;99.90;;;;;;5087168;28;20618;-77
2023/07/29 13:39:52;;;;;;;0.70;0.10;;;25.30;99.90;;;;;;5086788;28;21107;-78
2023/07/29 13:42:20;;;;;;;0.70;0.20;;;25.30;99.90;;;;;;5073471;28;21080;-73
2023/07/29 13:44:50;;;;;;;0.70;0.10;;;25.40;99.90;;;;;;5080215;28;20441;-75
2023/07/29 13:47:17;;;;;;;0.67;0.20;;;25.50;99.90;;;;;;5075893;28;20435;-75
2023/07/29 13:49:45;;;;;;;0.70;0.23;;;25.50;97.50;;;;;;5091171;28;20451;-75
2023/07/29 13:52:15;;;;;;;0.90;0.30;;;25.50;97.10;;;;;;5095623;28;20454;-74
2023/07/29 13:54:43;;;;;;;0.70;0.10;;;25.50;99.90;;;;;;5097063;28;20903;-76
2023/07/29 13:57:11;;;;;;;0.70;0.30;;;25.50;99.90;;;;;;5094742;28;20530;-74
2023/07/29 13:59:39;;;;;;;0.70;0.10;;;25.60;94.10;;;;;;5093675;28;20476;-75
2023/07/29 14:02:08;;;;;;;1.70;0.57;;;25.60;94.80;;;;;;5091777;28;20583;-75
2023/07/29 14:04:36;;;;;;;0.70;0.10;;;25.60;93.70;;;;;;5096477;28;20948;-76
2023/07/29 14:07:05;;;;;;;0.90;0.53;;;25.60;96.40;;;;;;5094780;28;20531;-76
2023/07/29 14:09:33;;;;;;;0.70;0.10;;;25.60;90.50;;;;;;5098450;28;20480;-78
2023/07/29 14:12:01;;;;;;;0.67;0.20;;;25.60;96.50;;;;;;5105606;28;20440;-78
2023/07/29 14:14:29;;;;;;;1.33;0.50;;;25.70;94.50;;;;;;5107869;28;20449;-79
2023/07/29 14:16:57;;;;;;;0.70;0.30;;;25.80;92.60;;;;;;5106696;28;20804;-79
2023/07/29 14:19:26;;;;;;;0.83;0.47;;;25.90;71.30;;;;;;5102459;28;20479;-77
2023/07/29 14:21:54;;;;;;;0.80;0.50;;;25.90;81.40;;;;;;5089823;28;20565;-75
2023/07/29 14:24:22;;;;;;;1.00;0.50;;;26.00;83.10;;;;;;5102750;28;20440;-79
2023/07/29 14:26:50;;;;;;;0.80;0.47;;;26.10;78.30;;;;;;5096365;28;20484;-76
2023/07/29 14:29:18;;;;;;;0.70;0.20;;;26.30;59.40;;;;;;5092933;28;21018;-78
2023/07/29 14:31:46;;;;;;;0.90;0.60;;;26.30;71.10;;;;;;5095721;28;20436;-75
2023/07/29 14:34:14;;;;;;;0.70;0.30;;;26.50;66.70;;;;;;5094685;28;20559;-77
2023/07/29 14:36:43;;;;;;;1.20;0.33;;;26.50;64.20;;;;;;5101599;28;20583;-74
2023/07/29 14:39:11;;;;;;;2.30;0.73;;;;;;;;;;5077461;28;20455;-75
2023/07/29 14:41:39;;;;;;;0.70;0.20;;;26.50;47.70;;;;;;5071814;28;20452;-75
2023/07/29 14:44:07;;;;;;;0.70;0.30;;;26.70;38.80;;;;;;5083591;28;20482;-74
2023/07/29 14:46:35;;;;;;;0.80;0.20;;;26.80;43.90;;;;;;5091284;28;20507;-74
2023/07/29 14:49:03;;;;;;;0.70;0.20;;;26.80;45.30;;;;;;5085352;28;20478;-74
2023/07/29 14:51:31;;;;;;;0.90;0.40;;;26.90;34.90;;;;;;5080661;28;20453;-71
2023/07/29 14:54:00;;;;;;;0.80;0.40;;;27.00;43.80;;;;;;5083925;28;20524;-75
2023/07/29 14:56:28;;;;;;;0.70;0.10;;;26.90;34.40;;;;;;5082036;28;20527;-76
2023/07/29 14:58:56;;;;;;;1.00;0.40;;;26.90;33.50;;;;;;5081017;28;20464;-77
2023/07/29 15:01:24;;;;;;;0.70;0.10;;;27.00;23.40;;;;;;5087530;28;20471;-74
2023/07/29 15:03:52;;;;;;;0.70;0.20;;;27.00;28.60;;;;;;5094356;28;20472;-76
2023/07/29 15:06:20;;;;;;;0.70;0.20;;;27.10;30.30;;;;;;5093485;28;20444;-74
2023/07/29 15:08:48;;;;;;;0.90;0.70;;;27.10;23.70;;;;;;5093650;28;20501;-74
2023/07/29 15:11:17;;;;;;;1.10;0.57;;;27.10;17.30;;;;;;5091662;28;20452;-71
2023/07/29 15:13:45;;;;;;;0.70;0.10;;;27.10;19.00;;;;;;5093331;28;20920;-73
2023/07/29 15:16:13;;;;;;;1.23;0.60;;;27.00;22.40;;;;;;5093021;28;20848;-74
2023/07/29 15:18:41;;;;;;;0.70;0.10;;;27.10;10.60;;;;;;5094150;28;20455;-75
2023/07/29 15:21:09;;;;;;;0.70;0.10;;;27.10;9.20;;;;;;5092828;28;20898;-75
2023/07/29 15:23:37;;;;;;;3.00;1.70;;;27.10;18.50;;;;;;5093251;28;20480;-73
2023/07/29 15:26:04;;;;;;;1.80;1.20;;;26.90;13.50;;;;;;5090533;28;20464;-71
2023/07/29 15:28:34;;;;;;;0.90;0.40;;;26.80;14.60;;;;;;5092493;28;20493;-75
2023/07/29 15:31:02;;;;;;;1.43;0.80;;;26.70;6.10;;;;;;5089731;28;20592;-74
2023/07/29 15:33:30;;;;;;;0.70;0.20;;;26.60;12.60;;;;;;5091651;28;20482;-75
2023/07/29 15:35:58;;;;;;;0.70;0.20;;;26.70;12.70;;;;;;5092694;28;20528;-72
2023/07/29 15:38:26;;;;;;;1.20;0.70;;;26.80;13.80;;;;;;5092262;28;20484;-75
2023/07/29 15:40:54;;;;;;;0.80;0.40;;;26.80;6.90;;;;;;5092883;28;21043;-74
2023/07/29 15:43:22;;;;;;;1.10;0.50;;;26.90;13.10;;;;;;5099159;28;20500;-76
2023/07/29 15:45:51;;;;;;;0.70;0.30;;;26.90;13.20;;;;;;5096893;28;20442;-76
2023/07/29 15:48:20;;;;;;;0.70;0.10;;;26.90;11.00;;;;;;5100506;28;20459;-79
2023/07/29 15:50:48;;;;;;;0.93;0.50;;;27.00;4.40;;;;;;5104616;28;20464;-77
2023/07/29 15:53:16;;;;;;;0.70;0.27;;;26.30;10.10;;;;;;5112696;28;20479;-79
2023/07/29 15:55:43;;;;;;;0.80;0.30;;;27.00;4.80;;;;;;5123995;28;20439;-77
2023/07/29 15:58:11;;;;;;;0.80;0.30;;;27.00;5.40;;;;;;5106155;28;20444;-76
2023/07/29 16:00:40;;;;;;;0.70;0.10;;;27.10;1.00;;;;;;5098093;28;20871;-75
2023/07/29 16:03:09;;;;;;;0.80;0.40;;;27.00;4.80;;;;;;5097370;28;20512;-71
2023/07/29 16:05:37;;;;;;;0.70;0.30;;;26.80;1.00;;;;;;5096246;28;20448;-73
2023/07/29 16:08:05;;;;;;;0.70;0.10;;;26.70;1.00;;;;;;5096254;28;20886;-74
2023/07/29 16:10:33;;;;;;;1.10;0.60;;;;;;;;;;5105390;28;20550;-74
2023/07/29 16:13:02;;;;;;;0.70;0.30;;;26.50;1.00;;;;;;5093195;28;20451;-71
2023/07/29 16:15:30;;;;;;;0.70;0.10;;;26.40;2.70;;;;;;5096333;28;20939;-72
2023/07/29 16:17:59;;;;;;;0.70;0.10;;;26.40;4.00;;;;;;5098212;28;20440;-73
2023/07/29 16:20:29;;;;;;;0.70;0.27;;;26.50;1.00;;;;;;5101342;28;20471;-73
2023/07/29 16:22:57;;;;;;;0.80;0.27;;;26.70;1.00;;;;;;5102309;28;20476;-74
2023/07/29 16:25:24;;;;;;;1.03;0.93;;;26.70;1.00;;;;;;5097963;28;20462;-74
2023/07/29 16:27:55;;;;;;;0.70;0.20;;;;;;;;;;5099633;28;20479;-74
2023/07/29 16:30:23;;;;;;;0.70;0.20;;;26.60;1.00;;;;;;5100822;28;20468;-76
2023/07/29 16:32:52;;;;;;;0.70;0.20;;;;;;;;;;5104183;28;20461;-74
2023/07/29 16:35:20;;;;;;;1.10;0.60;;;26.60;1.00;;;;;;5107088;28;20456;-72
2023/07/29 16:37:50;;;;;;;0.80;0.40;;;26.80;1.00;;;;;;5101309;28;20448;-74
2023/07/29 16:40:18;;;;;;;0.70;0.20;;;26.90;1.00;;;;;;5098771;28;20456;-75
2023/07/29 16:42:46;;;;;;;0.70;0.20;;;26.90;1.00;;;;;;5096009;28;20497;-72
2023/07/29 16:45:14;;;;;;;0.70;0.20;;;27.10;1.00;;;;;;5093340;28;20472;-72
2023/07/29 16:47:41;;;;;;;0.80;0.30;;;27.30;1.00;;;;;;5089142;28;20448;-72
2023/07/29 16:50:10;;;;;;;0.70;0.10;;;27.40;1.00;;;;;;5089564;28;20484;-74
2023/07/29 16:52:38;;;;;;;1.63;0.87;;;27.50;1.00;;;;;;5092364;28;20900;-72
2023/07/29 16:55:08;;;;;;;1.13;0.43;;;27.40;1.00;;;;;;5085114;28;20874;-73
2023/07/29 16:57:36;;;;;;;2.20;0.57;;;27.30;1.00;;;;;;5084597;28;20942;-73
2023/07/29 17:00:05;;;;;;;0.70;0.10;;;27.00;1.00;;;;;;5084752;28;20480;-71
2023/07/29 17:02:33;;;;;;;0.80;0.30;;;27.00;1.00;;;;;;5089034;28;20420;-74
2023/07/29 17:05:04;;;;;;;0.70;0.10;;;27.00;1.00;;;;;;5091278;28;20480;-72
2023/07/29 17:07:31;;;;;;;0.70;0.10;;;27.10;1.00;;;;;;5077515;28;20463;-73